sensor_id;sensor_type;location;lat;lon;timestamp;P1;durP1;ratioP1;P2;durP2;ratioP2
56005;SDS011;41888;44.696;10.522;2023-07-20T00:02:00;6.38;;;2.05;;
56005;SDS011;41888;44.696;10.522;2023-07-20T00:04:27;7.20;;;2.33;;
56005;SDS011;41888;44.696;10.522;2023-07-20T00:06:53;6.70;;;2.55;;
56005;SDS011;41888;44.696;10.522;2023-07-20T00:09:20;5.97;;;2.35;;
56005;SDS011;41888;44.696;10.522;2023-07-20T00:11:49;8.20;;;2.38;;
56005;SDS011;41888;44.696;10.522;2023-07-20T00:14:16;7.53;;;2.50;;
56005;SDS011;41888;44.696;10.522;2023-07-20T00:16:44;6.75;;;2.80;;
56005;SDS011;41888;44.696;10.522;2023-07-20T00:19:11;10.00;;;2.50;;
56005;SDS011;41888;44.696;10.522;2023-07-20T00:21:38;9.73;;;2.92;;
56005;SDS011;41888;44.696;10.522;2023-07-20T00:24:05;7.07;;;2.70;;
56005;SDS011;41888;44.696;10.522;2023-07-20T00:26:32;7.35;;;2.55;;
56005;SDS011;41888;44.696;10.522;2023-07-20T00:28:58;8.15;;;2.10;;
56005;SDS011;41888;44.696;10.522;2023-07-20T00:31:24;5.38;;;2.28;;
56005;SDS011;41888;44.696;10.522;2023-07-20T00:33:52;7.05;;;2.15;;
56005;SDS011;41888;44.696;10.522;2023-07-20T00:36:18;9.07;;;2.17;;
56005;SDS011;41888;44.696;10.522;2023-07-20T00:38:44;5.53;;;2.42;;
56005;SDS011;41888;44.696;10.522;2023-07-20T00:41:10;5.03;;;2.30;;
56005;SDS011;41888;44.696;10.522;2023-07-20T00:43:38;6.75;;;2.30;;
56005;SDS011;41888;44.696;10.522;2023-07-20T00:46:04;5.40;;;2.15;;
56005;SDS011;41888;44.696;10.522;2023-07-20T00:48:31;6.32;;;2.15;;
56005;SDS011;41888;44.696;10.522;2023-07-20T00:50:58;4.78;;;2.13;;
56005;SDS011;41888;44.696;10.522;2023-07-20T00:53:26;5.28;;;2.20;;
56005;SDS011;41888;44.696;10.522;2023-07-20T00:55:53;7.47;;;2.30;;
56005;SDS011;41888;44.696;10.522;2023-07-20T00:58:19;5.70;;;2.53;;
56005;SDS011;41888;44.696;10.522;2023-07-20T01:00:46;5.22;;;2.42;;
56005;SDS011;41888;44.696;10.522;2023-07-20T01:03:12;6.53;;;2.33;;
56005;SDS011;41888;44.696;10.522;2023-07-20T01:05:45;6.72;;;1.73;;
56005;SDS011;41888;44.696;10.522;2023-07-20T01:13:56;6.60;;;3.30;;
56005;SDS011;41888;44.696;10.522;2023-07-20T01:16:22;7.55;;;2.80;;
56005;SDS011;41888;44.696;10.522;2023-07-20T01:18:49;9.73;;;2.38;;
56005;SDS011;41888;44.696;10.522;2023-07-20T01:21:21;3.85;;;1.70;;
56005;SDS011;41888;44.696;10.522;2023-07-20T01:32:50;5.93;;;2.03;;
56005;SDS011;41888;44.696;10.522;2023-07-20T01:35:20;3.90;;;2.20;;
56005;SDS011;41888;44.696;10.522;2023-07-20T01:37:53;3.57;;;2.77;;
56005;SDS011;41888;44.696;10.522;2023-07-20T01:40:20;5.03;;;2.00;;
56005;SDS011;41888;44.696;10.522;2023-07-20T01:42:48;3.10;;;1.90;;
56005;SDS011;41888;44.696;10.522;2023-07-20T01:45:14;4.55;;;1.70;;
56005;SDS011;41888;44.696;10.522;2023-07-20T01:47:41;4.32;;;2.22;;
56005;SDS011;41888;44.696;10.522;2023-07-20T01:50:07;4.28;;;2.03;;
56005;SDS011;41888;44.696;10.522;2023-07-20T01:52:34;4.90;;;2.33;;
56005;SDS011;41888;44.696;10.522;2023-07-20T01:55:00;4.13;;;2.53;;
56005;SDS011;41888;44.696;10.522;2023-07-20T01:57:26;8.35;;;2.92;;
56005;SDS011;41888;44.696;10.522;2023-07-20T01:59:52;4.93;;;2.25;;
56005;SDS011;41888;44.696;10.522;2023-07-20T02:02:19;5.07;;;2.47;;
56005;SDS011;41888;44.696;10.522;2023-07-20T02:04:45;4.75;;;2.13;;
56005;SDS011;41888;44.696;10.522;2023-07-20T02:07:12;4.45;;;2.13;;
56005;SDS011;41888;44.696;10.522;2023-07-20T02:09:38;5.30;;;2.38;;
56005;SDS011;41888;44.696;10.522;2023-07-20T02:12:04;4.40;;;2.15;;
56005;SDS011;41888;44.696;10.522;2023-07-20T02:14:30;5.30;;;2.80;;
56005;SDS011;41888;44.696;10.522;2023-07-20T02:16:56;4.97;;;2.50;;
56005;SDS011;41888;44.696;10.522;2023-07-20T02:19:25;5.68;;;2.63;;
56005;SDS011;41888;44.696;10.522;2023-07-20T02:21:51;7.50;;;3.20;;
56005;SDS011;41888;44.696;10.522;2023-07-20T02:24:18;8.13;;;2.80;;
56005;SDS011;41888;44.696;10.522;2023-07-20T02:26:44;7.63;;;4.13;;
56005;SDS011;41888;44.696;10.522;2023-07-20T02:29:10;8.30;;;3.35;;
56005;SDS011;41888;44.696;10.522;2023-07-20T02:31:37;5.53;;;3.03;;
56005;SDS011;41888;44.696;10.522;2023-07-20T02:34:04;6.97;;;3.80;;
56005;SDS011;41888;44.696;10.522;2023-07-20T02:36:31;9.15;;;3.58;;
56005;SDS011;41888;44.696;10.522;2023-07-20T02:39:00;8.43;;;3.88;;
56005;SDS011;41888;44.696;10.522;2023-07-20T02:41:33;6.85;;;3.05;;
56005;SDS011;41888;44.696;10.522;2023-07-20T02:43:59;6.30;;;2.97;;
56005;SDS011;41888;44.696;10.522;2023-07-20T02:46:26;6.35;;;3.30;;
56005;SDS011;41888;44.696;10.522;2023-07-20T02:48:55;5.55;;;3.47;;
56005;SDS011;41888;44.696;10.522;2023-07-20T02:51:21;4.97;;;2.97;;
56005;SDS011;41888;44.696;10.522;2023-07-20T02:53:47;6.13;;;3.40;;
56005;SDS011;41888;44.696;10.522;2023-07-20T02:56:13;6.00;;;3.50;;
56005;SDS011;41888;44.696;10.522;2023-07-20T02:58:41;12.68;;;4.38;;
56005;SDS011;41888;44.696;10.522;2023-07-20T03:01:13;6.35;;;3.63;;
56005;SDS011;41888;44.696;10.522;2023-07-20T03:03:40;9.15;;;4.00;;
56005;SDS011;41888;44.696;10.522;2023-07-20T03:06:11;7.18;;;4.22;;
56005;SDS011;41888;44.696;10.522;2023-07-20T03:08:39;7.53;;;3.78;;
56005;SDS011;41888;44.696;10.522;2023-07-20T03:11:06;10.07;;;4.00;;
56005;SDS011;41888;44.696;10.522;2023-07-20T03:13:33;5.45;;;3.40;;
56005;SDS011;41888;44.696;10.522;2023-07-20T03:15:59;9.05;;;3.50;;
56005;SDS011;41888;44.696;10.522;2023-07-20T03:18:25;8.57;;;3.83;;
56005;SDS011;41888;44.696;10.522;2023-07-20T03:20:51;9.23;;;3.75;;
56005;SDS011;41888;44.696;10.522;2023-07-20T03:23:17;7.90;;;3.47;;
56005;SDS011;41888;44.696;10.522;2023-07-20T03:25:44;6.95;;;3.92;;
56005;SDS011;41888;44.696;10.522;2023-07-20T03:28:10;7.53;;;3.70;;
56005;SDS011;41888;44.696;10.522;2023-07-20T03:30:36;7.05;;;3.65;;
56005;SDS011;41888;44.696;10.522;2023-07-20T03:33:02;7.25;;;3.08;;
56005;SDS011;41888;44.696;10.522;2023-07-20T03:35:28;7.85;;;2.72;;
56005;SDS011;41888;44.696;10.522;2023-07-20T03:37:56;6.18;;;3.17;;
56005;SDS011;41888;44.696;10.522;2023-07-20T03:40:22;10.95;;;3.22;;
56005;SDS011;41888;44.696;10.522;2023-07-20T03:42:49;7.85;;;4.07;;
56005;SDS011;41888;44.696;10.522;2023-07-20T03:45:15;7.43;;;2.65;;
56005;SDS011;41888;44.696;10.522;2023-07-20T03:47:41;10.77;;;4.22;;
56005;SDS011;41888;44.696;10.522;2023-07-20T03:50:09;9.80;;;2.70;;
56005;SDS011;41888;44.696;10.522;2023-07-20T03:52:36;7.70;;;2.80;;
56005;SDS011;41888;44.696;10.522;2023-07-20T03:55:02;7.15;;;3.38;;
56005;SDS011;41888;44.696;10.522;2023-07-20T03:57:28;6.78;;;2.70;;
56005;SDS011;41888;44.696;10.522;2023-07-20T03:59:57;8.63;;;3.70;;
56005;SDS011;41888;44.696;10.522;2023-07-20T04:02:23;5.57;;;2.83;;
56005;SDS011;41888;44.696;10.522;2023-07-20T04:04:50;6.20;;;2.30;;
56005;SDS011;41888;44.696;10.522;2023-07-20T04:07:16;8.32;;;3.13;;
56005;SDS011;41888;44.696;10.522;2023-07-20T04:09:43;5.50;;;2.95;;
56005;SDS011;41888;44.696;10.522;2023-07-20T04:12:09;10.65;;;3.30;;
56005;SDS011;41888;44.696;10.522;2023-07-20T04:14:35;8.10;;;3.45;;
56005;SDS011;41888;44.696;10.522;2023-07-20T04:17:01;4.75;;;2.88;;
56005;SDS011;41888;44.696;10.522;2023-07-20T04:19:28;6.95;;;2.90;;
56005;SDS011;41888;44.696;10.522;2023-07-20T04:21:54;8.07;;;2.75;;
56005;SDS011;41888;44.696;10.522;2023-07-20T04:24:20;9.65;;;2.60;;
56005;SDS011;41888;44.696;10.522;2023-07-20T04:26:47;7.05;;;2.85;;
56005;SDS011;41888;44.696;10.522;2023-07-20T04:29:13;5.65;;;3.13;;
56005;SDS011;41888;44.696;10.522;2023-07-20T04:31:39;7.78;;;2.80;;
56005;SDS011;41888;44.696;10.522;2023-07-20T04:34:05;7.28;;;3.08;;
56005;SDS011;41888;44.696;10.522;2023-07-20T04:36:31;5.53;;;2.60;;
56005;SDS011;41888;44.696;10.522;2023-07-20T04:38:57;10.25;;;3.25;;
56005;SDS011;41888;44.696;10.522;2023-07-20T04:41:24;8.43;;;3.33;;
56005;SDS011;41888;44.696;10.522;2023-07-20T04:43:50;10.38;;;3.83;;
56005;SDS011;41888;44.696;10.522;2023-07-20T04:46:16;8.68;;;3.45;;
56005;SDS011;41888;44.696;10.522;2023-07-20T04:48:43;8.68;;;3.00;;
56005;SDS011;41888;44.696;10.522;2023-07-20T04:51:10;8.40;;;3.50;;
56005;SDS011;41888;44.696;10.522;2023-07-20T04:53:36;6.20;;;2.90;;
56005;SDS011;41888;44.696;10.522;2023-07-20T04:56:02;7.25;;;3.05;;
56005;SDS011;41888;44.696;10.522;2023-07-20T04:58:29;4.85;;;2.83;;
56005;SDS011;41888;44.696;10.522;2023-07-20T05:00:55;7.07;;;3.15;;
56005;SDS011;41888;44.696;10.522;2023-07-20T05:03:21;6.50;;;3.17;;
56005;SDS011;41888;44.696;10.522;2023-07-20T05:05:48;7.18;;;3.00;;
56005;SDS011;41888;44.696;10.522;2023-07-20T05:08:14;5.40;;;2.60;;
56005;SDS011;41888;44.696;10.522;2023-07-20T05:10:41;9.63;;;3.80;;
56005;SDS011;41888;44.696;10.522;2023-07-20T05:13:07;9.18;;;3.45;;
56005;SDS011;41888;44.696;10.522;2023-07-20T05:15:33;6.70;;;3.05;;
56005;SDS011;41888;44.696;10.522;2023-07-20T05:18:00;6.05;;;2.83;;
56005;SDS011;41888;44.696;10.522;2023-07-20T05:20:26;8.43;;;3.50;;
56005;SDS011;41888;44.696;10.522;2023-07-20T05:22:52;16.20;;;3.50;;
56005;SDS011;41888;44.696;10.522;2023-07-20T05:25:18;9.52;;;3.45;;
56005;SDS011;41888;44.696;10.522;2023-07-20T05:27:47;12.32;;;5.05;;
56005;SDS011;41888;44.696;10.522;2023-07-20T05:30:14;10.55;;;4.43;;
56005;SDS011;41888;44.696;10.522;2023-07-20T05:32:40;7.28;;;4.57;;
56005;SDS011;41888;44.696;10.522;2023-07-20T05:35:06;10.02;;;4.75;;
56005;SDS011;41888;44.696;10.522;2023-07-20T05:37:34;9.73;;;3.92;;
56005;SDS011;41888;44.696;10.522;2023-07-20T05:40:00;5.32;;;3.33;;
56005;SDS011;41888;44.696;10.522;2023-07-20T05:42:26;7.25;;;3.28;;
56005;SDS011;41888;44.696;10.522;2023-07-20T05:44:52;6.82;;;3.40;;
56005;SDS011;41888;44.696;10.522;2023-07-20T05:47:20;6.85;;;2.97;;
56005;SDS011;41888;44.696;10.522;2023-07-20T05:49:46;6.57;;;3.63;;
56005;SDS011;41888;44.696;10.522;2023-07-20T05:52:13;9.60;;;3.70;;
56005;SDS011;41888;44.696;10.522;2023-07-20T05:54:39;8.50;;;3.38;;
56005;SDS011;41888;44.696;10.522;2023-07-20T05:57:05;6.78;;;3.83;;
56005;SDS011;41888;44.696;10.522;2023-07-20T05:59:31;8.57;;;3.85;;
56005;SDS011;41888;44.696;10.522;2023-07-20T06:01:57;10.20;;;3.22;;
56005;SDS011;41888;44.696;10.522;2023-07-20T06:04:23;8.77;;;3.20;;
56005;SDS011;41888;44.696;10.522;2023-07-20T06:06:50;10.90;;;4.18;;
56005;SDS011;41888;44.696;10.522;2023-07-20T06:09:16;8.80;;;3.40;;
56005;SDS011;41888;44.696;10.522;2023-07-20T06:11:42;5.22;;;3.17;;
56005;SDS011;41888;44.696;10.522;2023-07-20T06:14:08;10.38;;;3.00;;
56005;SDS011;41888;44.696;10.522;2023-07-20T06:16:34;9.10;;;3.42;;
56005;SDS011;41888;44.696;10.522;2023-07-20T06:19:01;7.20;;;3.42;;
56005;SDS011;41888;44.696;10.522;2023-07-20T06:21:27;7.18;;;3.20;;
56005;SDS011;41888;44.696;10.522;2023-07-20T06:23:53;9.00;;;4.70;;
56005;SDS011;41888;44.696;10.522;2023-07-20T06:26:19;11.00;;;4.18;;
56005;SDS011;41888;44.696;10.522;2023-07-20T06:28:46;10.30;;;3.33;;
56005;SDS011;41888;44.696;10.522;2023-07-20T06:31:12;6.63;;;4.05;;
56005;SDS011;41888;44.696;10.522;2023-07-20T06:33:38;6.47;;;3.20;;
56005;SDS011;41888;44.696;10.522;2023-07-20T06:36:04;7.55;;;3.67;;
56005;SDS011;41888;44.696;10.522;2023-07-20T06:38:30;8.27;;;3.55;;
56005;SDS011;41888;44.696;10.522;2023-07-20T06:40:56;9.75;;;3.92;;
56005;SDS011;41888;44.696;10.522;2023-07-20T06:43:23;7.18;;;3.40;;
56005;SDS011;41888;44.696;10.522;2023-07-20T06:45:52;8.18;;;3.40;;
56005;SDS011;41888;44.696;10.522;2023-07-20T06:48:19;7.88;;;3.78;;
56005;SDS011;41888;44.696;10.522;2023-07-20T06:50:46;7.63;;;3.42;;
56005;SDS011;41888;44.696;10.522;2023-07-20T06:53:13;7.05;;;3.75;;
56005;SDS011;41888;44.696;10.522;2023-07-20T06:55:39;6.43;;;3.63;;
56005;SDS011;41888;44.696;10.522;2023-07-20T06:58:07;7.85;;;3.60;;
56005;SDS011;41888;44.696;10.522;2023-07-20T07:00:34;8.00;;;3.65;;
56005;SDS011;41888;44.696;10.522;2023-07-20T07:03:00;15.35;;;3.67;;
56005;SDS011;41888;44.696;10.522;2023-07-20T07:05:27;7.82;;;3.13;;
56005;SDS011;41888;44.696;10.522;2023-07-20T07:07:54;8.57;;;3.40;;
56005;SDS011;41888;44.696;10.522;2023-07-20T07:10:20;12.55;;;3.53;;
56005;SDS011;41888;44.696;10.522;2023-07-20T07:12:46;7.75;;;2.83;;
56005;SDS011;41888;44.696;10.522;2023-07-20T07:15:13;6.45;;;2.78;;
56005;SDS011;41888;44.696;10.522;2023-07-20T07:17:39;5.45;;;2.78;;
56005;SDS011;41888;44.696;10.522;2023-07-20T07:20:05;4.07;;;2.60;;
56005;SDS011;41888;44.696;10.522;2023-07-20T07:22:32;9.05;;;3.42;;
56005;SDS011;41888;44.696;10.522;2023-07-20T07:24:58;11.27;;;4.20;;
56005;SDS011;41888;44.696;10.522;2023-07-20T07:27:25;5.13;;;3.10;;
56005;SDS011;41888;44.696;10.522;2023-07-20T07:29:51;5.47;;;2.97;;
56005;SDS011;41888;44.696;10.522;2023-07-20T07:32:17;12.18;;;3.00;;
56005;SDS011;41888;44.696;10.522;2023-07-20T07:34:44;6.90;;;3.10;;
56005;SDS011;41888;44.696;10.522;2023-07-20T07:37:12;10.65;;;3.28;;
56005;SDS011;41888;44.696;10.522;2023-07-20T07:39:39;6.90;;;3.60;;
56005;SDS011;41888;44.696;10.522;2023-07-20T07:42:05;7.47;;;3.20;;
56005;SDS011;41888;44.696;10.522;2023-07-20T07:44:31;6.97;;;3.35;;
56005;SDS011;41888;44.696;10.522;2023-07-20T07:46:58;6.82;;;3.28;;
56005;SDS011;41888;44.696;10.522;2023-07-20T07:49:24;10.57;;;3.13;;
56005;SDS011;41888;44.696;10.522;2023-07-20T07:51:50;7.50;;;3.20;;
56005;SDS011;41888;44.696;10.522;2023-07-20T07:54:16;5.85;;;3.03;;
56005;SDS011;41888;44.696;10.522;2023-07-20T07:56:42;6.68;;;3.00;;
56005;SDS011;41888;44.696;10.522;2023-07-20T07:59:09;6.43;;;2.80;;
56005;SDS011;41888;44.696;10.522;2023-07-20T08:01:36;5.97;;;3.47;;
56005;SDS011;41888;44.696;10.522;2023-07-20T08:04:02;5.15;;;3.00;;
56005;SDS011;41888;44.696;10.522;2023-07-20T08:06:28;7.53;;;2.97;;
56005;SDS011;41888;44.696;10.522;2023-07-20T08:08:55;8.55;;;3.38;;
56005;SDS011;41888;44.696;10.522;2023-07-20T08:11:21;9.48;;;3.25;;
56005;SDS011;41888;44.696;10.522;2023-07-20T08:13:48;12.75;;;3.28;;
56005;SDS011;41888;44.696;10.522;2023-07-20T08:16:14;5.80;;;2.90;;
56005;SDS011;41888;44.696;10.522;2023-07-20T08:18:40;9.80;;;3.47;;
56005;SDS011;41888;44.696;10.522;2023-07-20T08:21:07;7.03;;;3.63;;
56005;SDS011;41888;44.696;10.522;2023-07-20T08:23:33;7.82;;;2.72;;
56005;SDS011;41888;44.696;10.522;2023-07-20T08:25:59;6.50;;;3.63;;
56005;SDS011;41888;44.696;10.522;2023-07-20T08:28:26;6.63;;;3.25;;
56005;SDS011;41888;44.696;10.522;2023-07-20T08:30:54;10.30;;;3.25;;
56005;SDS011;41888;44.696;10.522;2023-07-20T08:33:20;6.63;;;3.42;;
56005;SDS011;41888;44.696;10.522;2023-07-20T08:35:46;6.05;;;3.00;;
56005;SDS011;41888;44.696;10.522;2023-07-20T08:38:13;6.72;;;3.50;;
56005;SDS011;41888;44.696;10.522;2023-07-20T08:40:44;7.47;;;3.25;;
56005;SDS011;41888;44.696;10.522;2023-07-20T08:43:11;8.77;;;3.20;;
56005;SDS011;41888;44.696;10.522;2023-07-20T08:45:40;6.78;;;3.42;;
56005;SDS011;41888;44.696;10.522;2023-07-20T08:48:07;5.38;;;3.28;;
56005;SDS011;41888;44.696;10.522;2023-07-20T08:50:34;6.07;;;2.45;;
56005;SDS011;41888;44.696;10.522;2023-07-20T08:53:01;10.32;;;3.28;;
56005;SDS011;41888;44.696;10.522;2023-07-20T08:55:29;9.32;;;3.60;;
56005;SDS011;41888;44.696;10.522;2023-07-20T08:58:00;8.88;;;3.20;;
56005;SDS011;41888;44.696;10.522;2023-07-20T09:00:27;11.63;;;3.75;;
56005;SDS011;41888;44.696;10.522;2023-07-20T09:02:57;10.32;;;4.05;;
56005;SDS011;41888;44.696;10.522;2023-07-20T09:05:24;11.98;;;3.72;;
56005;SDS011;41888;44.696;10.522;2023-07-20T09:07:51;13.00;;;3.40;;
56005;SDS011;41888;44.696;10.522;2023-07-20T09:10:19;8.48;;;3.88;;
56005;SDS011;41888;44.696;10.522;2023-07-20T09:12:46;8.50;;;2.63;;
56005;SDS011;41888;44.696;10.522;2023-07-20T09:15:12;9.25;;;3.13;;
56005;SDS011;41888;44.696;10.522;2023-07-20T09:17:39;4.88;;;2.90;;
56005;SDS011;41888;44.696;10.522;2023-07-20T09:20:10;9.70;;;3.38;;
56005;SDS011;41888;44.696;10.522;2023-07-20T09:22:37;6.75;;;3.40;;
56005;SDS011;41888;44.696;10.522;2023-07-20T09:25:07;4.55;;;2.97;;
56005;SDS011;41888;44.696;10.522;2023-07-20T09:27:46;9.25;;;3.22;;
56005;SDS011;41888;44.696;10.522;2023-07-20T09:30:14;8.35;;;3.70;;
56005;SDS011;41888;44.696;10.522;2023-07-20T09:32:44;11.35;;;3.53;;
56005;SDS011;41888;44.696;10.522;2023-07-20T09:35:22;9.68;;;3.65;;
56005;SDS011;41888;44.696;10.522;2023-07-20T09:37:49;8.63;;;3.55;;
56005;SDS011;41888;44.696;10.522;2023-07-20T09:40:18;11.00;;;3.70;;
56005;SDS011;41888;44.696;10.522;2023-07-20T09:42:44;8.35;;;3.22;;
56005;SDS011;41888;44.696;10.522;2023-07-20T09:45:11;9.10;;;4.13;;
56005;SDS011;41888;44.696;10.522;2023-07-20T09:47:38;5.47;;;3.22;;
56005;SDS011;41888;44.696;10.522;2023-07-20T09:50:05;5.20;;;2.72;;
56005;SDS011;41888;44.696;10.522;2023-07-20T09:52:38;8.43;;;3.00;;
56005;SDS011;41888;44.696;10.522;2023-07-20T09:55:07;9.05;;;3.63;;
56005;SDS011;41888;44.696;10.522;2023-07-20T09:57:34;9.13;;;3.40;;
56005;SDS011;41888;44.696;10.522;2023-07-20T10:00:04;6.70;;;3.08;;
56005;SDS011;41888;44.696;10.522;2023-07-20T10:02:36;9.38;;;4.00;;
56005;SDS011;41888;44.696;10.522;2023-07-20T10:05:14;9.77;;;3.20;;
56005;SDS011;41888;44.696;10.522;2023-07-20T10:07:47;6.72;;;2.67;;
56005;SDS011;41888;44.696;10.522;2023-07-20T10:10:16;9.13;;;2.83;;
56005;SDS011;41888;44.696;10.522;2023-07-20T10:12:44;8.52;;;3.08;;
56005;SDS011;41888;44.696;10.522;2023-07-20T10:15:25;7.22;;;3.10;;
56005;SDS011;41888;44.696;10.522;2023-07-20T10:20:30;6.72;;;2.78;;
56005;SDS011;41888;44.696;10.522;2023-07-20T10:22:58;10.45;;;3.42;;
56005;SDS011;41888;44.696;10.522;2023-07-20T10:25:25;6.07;;;2.97;;
56005;SDS011;41888;44.696;10.522;2023-07-20T10:27:53;6.35;;;3.88;;
56005;SDS011;41888;44.696;10.522;2023-07-20T10:30:20;4.05;;;2.85;;
56005;SDS011;41888;44.696;10.522;2023-07-20T10:32:47;7.22;;;3.20;;
56005;SDS011;41888;44.696;10.522;2023-07-20T10:35:14;6.53;;;3.40;;
56005;SDS011;41888;44.696;10.522;2023-07-20T10:37:52;5.13;;;3.30;;
56005;SDS011;41888;44.696;10.522;2023-07-20T10:40:34;9.20;;;3.30;;
56005;SDS011;41888;44.696;10.522;2023-07-20T10:43:07;4.53;;;3.03;;
56005;SDS011;41888;44.696;10.522;2023-07-20T10:48:22;8.77;;;3.40;;
56005;SDS011;41888;44.696;10.522;2023-07-20T10:53:52;9.43;;;3.40;;
56005;SDS011;41888;44.696;10.522;2023-07-20T10:56:20;8.50;;;4.22;;
56005;SDS011;41888;44.696;10.522;2023-07-20T10:58:47;5.93;;;3.20;;
56005;SDS011;41888;44.696;10.522;2023-07-20T11:01:14;9.15;;;3.83;;
56005;SDS011;41888;44.696;10.522;2023-07-20T11:03:42;9.52;;;3.88;;
56005;SDS011;41888;44.696;10.522;2023-07-20T11:09:04;7.50;;;3.75;;
56005;SDS011;41888;44.696;10.522;2023-07-20T11:11:41;6.15;;;3.55;;
56005;SDS011;41888;44.696;10.522;2023-07-20T11:14:23;9.75;;;3.90;;
56005;SDS011;41888;44.696;10.522;2023-07-20T11:16:51;11.55;;;3.42;;
56005;SDS011;41888;44.696;10.522;2023-07-20T11:19:20;8.57;;;3.70;;
56005;SDS011;41888;44.696;10.522;2023-07-20T11:21:51;7.57;;;3.47;;
56005;SDS011;41888;44.696;10.522;2023-07-20T11:24:18;8.95;;;3.88;;
56005;SDS011;41888;44.696;10.522;2023-07-20T11:26:52;10.05;;;3.75;;
56005;SDS011;41888;44.696;10.522;2023-07-20T11:31:46;6.47;;;4.18;;
56005;SDS011;41888;44.696;10.522;2023-07-20T11:34:14;9.13;;;3.65;;
56005;SDS011;41888;44.696;10.522;2023-07-20T11:36:42;8.57;;;3.60;;
56005;SDS011;41888;44.696;10.522;2023-07-20T11:39:10;8.82;;;4.10;;
56005;SDS011;41888;44.696;10.522;2023-07-20T11:41:38;11.27;;;4.38;;
56005;SDS011;41888;44.696;10.522;2023-07-20T11:44:09;9.25;;;3.45;;
56005;SDS011;41888;44.696;10.522;2023-07-20T11:46:40;10.98;;;4.80;;
56005;SDS011;41888;44.696;10.522;2023-07-20T11:49:09;9.93;;;4.95;;
56005;SDS011;41888;44.696;10.522;2023-07-20T11:51:39;9.15;;;3.95;;
56005;SDS011;41888;44.696;10.522;2023-07-20T11:54:06;12.63;;;5.63;;
56005;SDS011;41888;44.696;10.522;2023-07-20T11:56:34;8.80;;;4.03;;
56005;SDS011;41888;44.696;10.522;2023-07-20T11:59:00;11.48;;;4.22;;
56005;SDS011;41888;44.696;10.522;2023-07-20T12:01:28;6.38;;;3.30;;
56005;SDS011;41888;44.696;10.522;2023-07-20T12:03:57;6.97;;;4.43;;
56005;SDS011;41888;44.696;10.522;2023-07-20T12:06:28;7.47;;;3.67;;
56005;SDS011;41888;44.696;10.522;2023-07-20T12:08:57;6.93;;;3.25;;
56005;SDS011;41888;44.696;10.522;2023-07-20T12:11:37;7.18;;;3.63;;
56005;SDS011;41888;44.696;10.522;2023-07-20T12:14:04;7.25;;;3.55;;
56005;SDS011;41888;44.696;10.522;2023-07-20T12:16:33;9.52;;;3.55;;
56005;SDS011;41888;44.696;10.522;2023-07-20T12:21:28;13.60;;;4.10;;
56005;SDS011;41888;44.696;10.522;2023-07-20T12:23:55;7.25;;;3.50;;
56005;SDS011;41888;44.696;10.522;2023-07-20T12:26:23;4.68;;;2.97;;
56005;SDS011;41888;44.696;10.522;2023-07-20T12:28:54;7.47;;;3.20;;
56005;SDS011;41888;44.696;10.522;2023-07-20T12:31:20;8.73;;;3.78;;
56005;SDS011;41888;44.696;10.522;2023-07-20T12:33:48;8.27;;;4.35;;
56005;SDS011;41888;44.696;10.522;2023-07-20T12:36:15;6.65;;;3.50;;
56005;SDS011;41888;44.696;10.522;2023-07-20T12:38:42;7.85;;;3.03;;
56005;SDS011;41888;44.696;10.522;2023-07-20T12:41:09;5.90;;;2.92;;
56005;SDS011;41888;44.696;10.522;2023-07-20T12:43:42;7.35;;;3.55;;
56005;SDS011;41888;44.696;10.522;2023-07-20T12:46:10;7.22;;;3.53;;
56005;SDS011;41888;44.696;10.522;2023-07-20T12:48:37;5.88;;;3.72;;
56005;SDS011;41888;44.696;10.522;2023-07-20T12:51:05;8.00;;;3.83;;
56005;SDS011;41888;44.696;10.522;2023-07-20T12:53:31;8.55;;;4.22;;
56005;SDS011;41888;44.696;10.522;2023-07-20T12:55:58;5.85;;;3.72;;
56005;SDS011;41888;44.696;10.522;2023-07-20T12:58:25;7.55;;;3.28;;
56005;SDS011;41888;44.696;10.522;2023-07-20T13:00:52;8.90;;;3.60;;
56005;SDS011;41888;44.696;10.522;2023-07-20T13:03:18;7.53;;;3.35;;
56005;SDS011;41888;44.696;10.522;2023-07-20T13:05:46;8.32;;;3.75;;
56005;SDS011;41888;44.696;10.522;2023-07-20T13:08:13;10.05;;;3.55;;
56005;SDS011;41888;44.696;10.522;2023-07-20T13:10:39;12.82;;;3.78;;
56005;SDS011;41888;44.696;10.522;2023-07-20T13:13:06;5.95;;;4.00;;
56005;SDS011;41888;44.696;10.522;2023-07-20T13:15:40;8.68;;;3.53;;
56005;SDS011;41888;44.696;10.522;2023-07-20T13:18:08;8.10;;;4.28;;
56005;SDS011;41888;44.696;10.522;2023-07-20T13:20:34;11.27;;;3.70;;
56005;SDS011;41888;44.696;10.522;2023-07-20T13:23:00;8.82;;;4.03;;
56005;SDS011;41888;44.696;10.522;2023-07-20T13:25:26;6.90;;;3.40;;
56005;SDS011;41888;44.696;10.522;2023-07-20T13:27:53;6.35;;;4.05;;
56005;SDS011;41888;44.696;10.522;2023-07-20T13:30:19;5.63;;;3.55;;
56005;SDS011;41888;44.696;10.522;2023-07-20T13:32:46;7.13;;;3.53;;
56005;SDS011;41888;44.696;10.522;2023-07-20T13:35:13;7.93;;;3.35;;
56005;SDS011;41888;44.696;10.522;2023-07-20T13:37:39;9.00;;;3.83;;
56005;SDS011;41888;44.696;10.522;2023-07-20T13:40:06;12.15;;;3.88;;
56005;SDS011;41888;44.696;10.522;2023-07-20T13:42:38;7.95;;;3.50;;
56005;SDS011;41888;44.696;10.522;2023-07-20T13:45:08;7.88;;;3.35;;
56005;SDS011;41888;44.696;10.522;2023-07-20T13:47:34;6.60;;;3.03;;
56005;SDS011;41888;44.696;10.522;2023-07-20T13:50:00;7.38;;;4.25;;
56005;SDS011;41888;44.696;10.522;2023-07-20T13:52:26;11.60;;;3.08;;
56005;SDS011;41888;44.696;10.522;2023-07-20T13:54:53;8.25;;;3.60;;
56005;SDS011;41888;44.696;10.522;2023-07-20T13:57:19;8.02;;;3.35;;
56005;SDS011;41888;44.696;10.522;2023-07-20T13:59:45;8.45;;;4.03;;
56005;SDS011;41888;44.696;10.522;2023-07-20T14:02:13;11.43;;;4.15;;
56005;SDS011;41888;44.696;10.522;2023-07-20T14:04:40;10.80;;;3.42;;
56005;SDS011;41888;44.696;10.522;2023-07-20T14:07:06;7.88;;;3.22;;
56005;SDS011;41888;44.696;10.522;2023-07-20T14:09:32;13.57;;;3.97;;
56005;SDS011;41888;44.696;10.522;2023-07-20T14:11:59;9.45;;;4.10;;
56005;SDS011;41888;44.696;10.522;2023-07-20T14:14:25;8.35;;;3.38;;
56005;SDS011;41888;44.696;10.522;2023-07-20T14:16:51;10.10;;;4.97;;
56005;SDS011;41888;44.696;10.522;2023-07-20T14:19:17;7.80;;;3.88;;
56005;SDS011;41888;44.696;10.522;2023-07-20T14:21:44;8.77;;;3.92;;
56005;SDS011;41888;44.696;10.522;2023-07-20T14:24:10;5.90;;;3.50;;
56005;SDS011;41888;44.696;10.522;2023-07-20T14:26:36;6.63;;;3.08;;
56005;SDS011;41888;44.696;10.522;2023-07-20T14:29:03;6.47;;;3.30;;
56005;SDS011;41888;44.696;10.522;2023-07-20T14:31:29;6.70;;;4.15;;
56005;SDS011;41888;44.696;10.522;2023-07-20T14:33:55;12.98;;;4.97;;
56005;SDS011;41888;44.696;10.522;2023-07-20T14:36:21;7.45;;;3.83;;
56005;SDS011;41888;44.696;10.522;2023-07-20T14:38:47;9.93;;;4.25;;
56005;SDS011;41888;44.696;10.522;2023-07-20T14:41:14;6.68;;;3.58;;
56005;SDS011;41888;44.696;10.522;2023-07-20T14:43:40;6.78;;;3.85;;
56005;SDS011;41888;44.696;10.522;2023-07-20T14:46:06;8.10;;;3.22;;
56005;SDS011;41888;44.696;10.522;2023-07-20T14:48:32;7.93;;;4.03;;
56005;SDS011;41888;44.696;10.522;2023-07-20T14:50:59;7.15;;;4.03;;
56005;SDS011;41888;44.696;10.522;2023-07-20T14:53:25;6.53;;;3.30;;
56005;SDS011;41888;44.696;10.522;2023-07-20T14:55:57;7.32;;;4.05;;
56005;SDS011;41888;44.696;10.522;2023-07-20T14:58:25;6.65;;;2.65;;
56005;SDS011;41888;44.696;10.522;2023-07-20T15:00:51;9.88;;;3.88;;
56005;SDS011;41888;44.696;10.522;2023-07-20T15:03:18;6.93;;;3.40;;
56005;SDS011;41888;44.696;10.522;2023-07-20T15:05:44;6.13;;;3.28;;